Impacts TAF Board INFO
FOR SITUATIONAL AWARENESS. NOT TO BE USED FOR FLIGHT PLANNING PURPOSES.
IDs:

KDEN - Denver Intl, CO, US

Issued at 1137 UTC 23 May 2018
Updated at 1501 UTC 23 May 2018
Potential Impact None Slight Moderate High
Time<<24/15Z 24/16Z 24/17Z 24/18Z 24/19Z 24/20Z 24/21Z 24/22Z 24/23Z 25/00Z 25/01Z 25/02Z 25/03Z
Type PRVL PRVL PRVL
VIS >6 >6 >6
CIG -- -- --
Cover SCT SCT SCT
FltCat VFR VFR VFR
WX -- -- --
WDir 220 220 220
WSpd 10 10 10
WGst -- -- --

Raw TAF
KDEN 231137Z 2312/2418 20007KT P6SM FEW140 BKN220
  FM231500 VRB04KT P6SM FEW140 SCT220
  FM231700 11008KT P6SM FEW100 SCT150 SCT200
  FM232000 15014KT P6SM VCTS SCT090CB BKN140
  FM232300 02010KT P6SM VCSH FEW090 BKN130
  FM240300 12010KT P6SM FEW100 SCT150
  FM240500 22010KT P6SM SCT120 SCT180


METAR Board
Radar Display
Forecast Discussion

FOR SITUATIONAL AWARENESS. NOT TO BE USED FOR FLIGHT PLANNING PURPOSES.